createdAt,value
2022-09-18T00:01:32.410Z,93818.59
2022-09-18T00:04:02.081Z,93832.91
2022-09-18T00:06:35.676Z,93833.16
2022-09-18T00:09:05.997Z,93837.38
2022-09-18T00:11:39.470Z,93846.09
2022-09-18T00:14:08.521Z,93840.56
2022-09-18T00:16:35.928Z,93861.00
2022-09-18T00:19:03.294Z,93873.53
2022-09-18T00:21:31.918Z,93893.19
2022-09-18T00:24:01.064Z,93907.63
2022-09-18T00:26:28.533Z,93928.16
2022-09-18T00:28:57.152Z,93933.53
2022-09-18T00:31:30.029Z,93952.91
2022-09-18T00:34:00.480Z,93961.88
2022-09-18T00:36:27.915Z,93958.88
2022-09-18T00:38:56.679Z,93965.97
2022-09-18T00:41:32.175Z,93982.25
2022-09-18T00:44:30.087Z,94005.50
2022-09-18T00:47:30.537Z,94012.41
2022-09-18T00:50:07.127Z,94030.31
2022-09-18T00:52:54.642Z,94032.06
2022-09-18T00:55:26.612Z,94043.88
2022-09-18T00:57:57.424Z,94050.13
2022-09-18T01:00:24.476Z,94060.19
2022-09-18T01:02:51.388Z,94085.22
2022-09-18T01:05:48.341Z,94074.59
2022-09-18T01:08:49.367Z,94090.91
2022-09-18T01:11:37.950Z,94115.09
2022-09-18T01:14:25.350Z,94124.13
2022-09-18T01:17:11.309Z,94144.44
2022-09-18T01:20:06.217Z,94153.66
2022-09-18T01:23:15.041Z,94162.34
2022-09-18T01:26:12.115Z,94166.38
2022-09-18T01:28:49.296Z,94185.41
2022-09-18T01:31:27.610Z,94181.97
2022-09-18T01:34:13.947Z,94202.09
2022-09-18T01:36:47.107Z,94210.56
2022-09-18T01:39:26.066Z,94208.84
2022-09-18T01:41:55.176Z,94237.25
2022-09-18T01:44:27.082Z,94239.00
2022-09-18T01:46:58.560Z,94244.38
2022-09-18T01:49:37.187Z,94237.66
2022-09-18T01:52:15.587Z,94265.38
2022-09-18T01:54:48.881Z,94266.59
2022-09-18T01:57:31.250Z,94259.81
2022-09-18T02:00:05.147Z,94281.13
2022-09-18T02:02:54.633Z,94282.38
2022-09-18T02:05:29.943Z,94280.69
2022-09-18T02:08:01.592Z,94293.69
2022-09-18T02:10:33.914Z,94299.66
2022-09-18T02:13:06.916Z,94297.34
2022-09-18T02:15:40.778Z,94306.25
2022-09-18T02:18:26.911Z,94330.72
2022-09-18T02:20:55.728Z,94326.31
2022-09-18T02:23:23.618Z,94328.91
2022-09-18T02:25:58.472Z,94334.34
2022-09-18T02:28:28.095Z,94374.00
2022-09-18T02:30:55.609Z,94375.78
2022-09-18T02:33:24.452Z,94388.00
2022-09-18T02:36:12.273Z,94390.47
2022-09-18T02:38:44.900Z,94412.34
2022-09-18T02:41:38.091Z,94398.38
2022-09-18T02:44:12.779Z,94385.94
2022-09-18T02:46:48.735Z,94392.56
2022-09-18T02:49:21.856Z,94398.03
2022-09-18T02:52:02.413Z,94390.81
2022-09-18T02:54:41.421Z,94404.50
2022-09-18T02:57:16.407Z,94424.00
2022-09-18T02:59:55.240Z,94427.00
2022-09-18T03:02:23.039Z,94423.47
2022-09-18T03:04:51.337Z,94432.16
2022-09-18T03:07:28.172Z,94441.66
2022-09-18T03:09:56.496Z,94444.06
2022-09-18T03:12:23.277Z,94441.94
2022-09-18T03:14:50.168Z,94430.13
2022-09-18T03:17:17.300Z,94438.31
2022-09-18T03:19:45.897Z,94449.47
2022-09-18T03:22:13.357Z,94457.19
2022-09-18T03:24:41.835Z,94446.63
2022-09-18T03:27:10.537Z,94468.56
2022-09-18T03:29:37.475Z,94465.88
2022-09-18T03:32:05.222Z,94482.38
2022-09-18T03:34:40.243Z,94477.75
2022-09-18T03:37:07.583Z,94485.56
2022-09-18T03:39:34.825Z,94485.00
2022-09-18T03:42:06.884Z,94497.59
2022-09-18T03:44:35.571Z,94483.81
2022-09-18T03:47:04.794Z,94479.38
2022-09-18T03:49:31.744Z,94488.47
2022-09-18T03:51:58.687Z,94493.91
2022-09-18T03:54:29.464Z,94479.09
2022-09-18T03:57:19.467Z,94488.13
2022-09-18T04:00:01.904Z,94493.91
2022-09-18T04:02:43.839Z,94503.97
2022-09-18T04:05:30.178Z,94517.78
2022-09-18T04:08:35.994Z,94519.06
2022-09-18T04:11:19.414Z,94526.63
2022-09-18T04:13:46.464Z,94524.22
2022-09-18T04:16:14.000Z,94527.75
2022-09-18T04:18:40.909Z,94537.78
2022-09-18T04:21:08.853Z,94541.63
2022-09-18T04:23:36.096Z,94542.13
2022-09-18T04:26:09.002Z,94553.75
2022-09-18T04:28:42.839Z,94543.91
2022-09-18T04:31:11.603Z,94553.44
2022-09-18T04:33:38.440Z,94560.00
2022-09-18T04:36:07.813Z,94567.56
2022-09-18T04:38:35.509Z,94581.22
2022-09-18T04:41:02.499Z,94587.38
2022-09-18T04:43:30.176Z,94591.13
2022-09-18T04:45:58.650Z,94587.00
2022-09-18T04:48:25.532Z,94583.94
2022-09-18T04:50:53.234Z,94593.47
2022-09-18T04:53:21.822Z,94598.56
2022-09-18T04:55:48.793Z,94594.72
2022-09-18T04:58:18.011Z,94604.59
2022-09-18T05:00:51.291Z,94619.09
2022-09-18T05:03:19.520Z,94618.47
2022-09-18T05:05:48.377Z,94626.56
2022-09-18T05:08:17.241Z,94632.56
2022-09-18T05:10:44.468Z,94640.22
2022-09-18T05:13:12.058Z,94651.03
2022-09-18T05:15:45.721Z,94664.59
2022-09-18T05:18:12.989Z,94670.59
2022-09-18T05:20:39.807Z,94670.00
2022-09-18T05:23:08.391Z,94668.50
2022-09-18T05:25:36.383Z,94669.09
2022-09-18T05:28:04.134Z,94674.28
2022-09-18T05:30:43.631Z,94683.72
2022-09-18T05:33:11.496Z,94675.84
2022-09-18T05:35:40.330Z,94675.84
2022-09-18T05:38:08.363Z,94681.22
2022-09-18T05:40:37.852Z,94675.75
2022-09-18T05:43:05.824Z,94699.19
2022-09-18T05:45:35.163Z,94698.56
2022-09-18T05:48:07.656Z,94696.81
2022-09-18T05:50:36.730Z,94691.00
2022-09-18T05:53:12.258Z,94695.47
2022-09-18T05:55:48.951Z,94689.66
2022-09-18T05:58:18.160Z,94698.09
2022-09-18T06:00:46.178Z,94689.63
2022-09-18T06:03:21.454Z,94689.88
2022-09-18T06:05:53.043Z,94678.72
2022-09-18T06:08:21.222Z,94701.09
2022-09-18T06:10:47.997Z,94700.44
2022-09-18T06:13:18.115Z,94714.31
2022-09-18T06:15:54.276Z,94707.38
2022-09-18T06:18:33.889Z,94685.25
2022-09-18T06:21:02.360Z,94704.50
2022-09-18T06:23:31.998Z,94721.38
2022-09-18T06:26:10.378Z,94726.03
2022-09-18T06:28:41.111Z,94728.16
2022-09-18T06:31:09.750Z,94734.53
2022-09-18T06:33:49.984Z,94734.97
2022-09-18T06:36:17.032Z,94734.16
2022-09-18T06:38:59.578Z,94745.44
2022-09-18T06:41:26.692Z,94750.72
2022-09-18T06:43:55.136Z,94768.22
2022-09-18T06:46:44.379Z,94775.13
2022-09-18T06:49:25.780Z,94756.97
2022-09-18T06:51:52.674Z,94771.03
2022-09-18T06:54:19.378Z,94763.47
2022-09-18T06:56:47.873Z,94766.97
2022-09-18T06:59:16.449Z,94772.63
2022-09-18T07:01:43.974Z,94764.91
2022-09-18T07:04:18.788Z,94767.22
2022-09-18T07:06:46.589Z,94771.94
2022-09-18T07:09:14.467Z,94774.50
2022-09-18T07:12:07.534Z,94780.47
2022-09-18T07:14:47.816Z,94776.88
2022-09-18T07:17:19.127Z,94775.53
2022-09-18T07:19:51.063Z,94783.78
2022-09-18T07:22:22.667Z,94781.28
2022-09-18T07:24:49.703Z,94777.81
2022-09-18T07:27:16.379Z,94777.81
2022-09-18T07:29:43.926Z,94773.91
2022-09-18T07:32:14.160Z,94760.59
2022-09-18T07:34:44.049Z,94779.09
2022-09-18T07:37:13.827Z,94775.66
2022-09-18T07:39:46.245Z,94774.53
2022-09-18T07:42:48.555Z,94771.78
2022-09-18T07:45:15.563Z,94770.69
2022-09-18T07:47:42.334Z,94781.38
2022-09-18T07:50:15.882Z,94787.66
2022-09-18T07:52:51.888Z,94777.94
2022-09-18T07:55:23.116Z,94771.34
2022-09-18T07:58:04.643Z,94758.75
2022-09-18T08:00:51.855Z,94753.97
2022-09-18T08:03:21.348Z,94759.03
2022-09-18T08:06:17.713Z,94764.13
2022-09-18T08:08:56.201Z,94750.81
2022-09-18T08:12:10.848Z,94749.59
2022-09-18T08:14:58.041Z,94759.06
2022-09-18T08:17:34.162Z,94775.25
2022-09-18T08:20:04.382Z,94773.88
2022-09-18T08:22:44.789Z,94767.81
2022-09-18T08:25:13.533Z,94784.53
2022-09-18T08:27:43.962Z,94782.22
2022-09-18T08:30:13.780Z,94772.34
2022-09-18T08:32:42.292Z,94784.59
2022-09-18T08:35:11.218Z,94790.16
2022-09-18T08:37:38.704Z,94772.63
2022-09-18T08:41:08.867Z,94785.38
2022-09-18T08:44:10.554Z,94781.25
2022-09-18T08:47:01.494Z,94778.75
2022-09-18T08:49:43.264Z,94782.88
2022-09-18T08:52:17.638Z,94800.66
2022-09-18T08:54:47.886Z,94795.13
2022-09-18T08:57:37.449Z,94803.06
2022-09-18T09:00:41.805Z,94812.25
2022-09-18T09:03:37.049Z,94811.13
2022-09-18T09:06:16.094Z,94808.72
2022-09-18T09:08:58.069Z,94818.59
2022-09-18T09:11:31.848Z,94819.81
2022-09-18T09:14:04.389Z,94819.41
2022-09-18T09:16:49.754Z,94798.00
2022-09-18T09:19:31.214Z,94805.41
2022-09-18T09:22:18.929Z,94806.03
2022-09-18T09:25:04.610Z,94831.66
2022-09-18T09:27:49.367Z,94831.88
2022-09-18T09:30:35.755Z,94847.88
2022-09-18T09:33:40.979Z,94846.16
2022-09-18T09:36:27.544Z,94851.06
2022-09-18T09:39:13.285Z,94858.78
2022-09-18T09:41:57.380Z,94874.38
2022-09-18T09:44:57.918Z,94864.16
2022-09-18T09:47:41.684Z,94871.56
2022-09-18T09:50:09.553Z,94873.72
2022-09-18T09:52:39.392Z,94869.47
2022-09-18T09:55:14.351Z,94852.97
2022-09-18T09:57:50.655Z,94864.25
2022-09-18T10:00:20.269Z,94877.78
2022-09-18T10:03:01.206Z,94873.94
2022-09-18T10:05:39.586Z,94889.06
2022-09-18T10:08:10.695Z,94902.50
2022-09-18T10:10:45.332Z,94887.25
2022-09-18T10:13:18.175Z,94894.00
2022-09-18T10:15:49.400Z,94877.84
2022-09-18T10:18:42.334Z,94890.28
2022-09-18T10:21:13.821Z,94884.63
2022-09-18T10:24:05.956Z,94903.91
2022-09-18T10:27:15.470Z,94907.19
2022-09-18T10:29:43.619Z,94904.88
2022-09-18T10:32:33.608Z,94910.50
2022-09-18T10:35:28.606Z,94906.16
2022-09-18T10:37:57.680Z,94910.00
2022-09-18T10:40:40.200Z,94912.84
2022-09-18T10:43:18.138Z,94908.34
2022-09-18T10:45:54.786Z,94905.84
2022-09-18T10:48:33.499Z,94909.97
2022-09-18T10:51:02.705Z,94904.66
2022-09-18T10:53:38.143Z,94899.19
2022-09-18T10:56:20.145Z,94922.31
2022-09-18T10:58:50.457Z,94901.34
2022-09-18T11:01:18.017Z,94911.94
2022-09-18T11:04:01.127Z,94907.13
2022-09-18T11:06:34.341Z,94921.00
2022-09-18T11:09:40.438Z,94910.50
2022-09-18T11:12:27.494Z,94920.41
2022-09-18T11:15:07.877Z,94906.03
2022-09-18T11:17:46.570Z,94915.41
2022-09-18T11:20:42.512Z,94920.63
2022-09-18T11:23:37.039Z,94921.53
2022-09-18T11:26:19.957Z,94908.88
2022-09-18T11:29:04.616Z,94930.75
2022-09-18T11:32:05.892Z,94917.50
2022-09-18T11:34:45.084Z,94923.06
2022-09-18T11:37:15.136Z,94913.25
2022-09-18T11:39:51.329Z,94907.78
2022-09-18T11:42:18.661Z,94912.06
2022-09-18T11:44:48.034Z,94905.06
2022-09-18T11:47:36.856Z,94903.56
2022-09-18T11:50:15.044Z,94904.91
2022-09-18T11:52:49.892Z,94918.00
2022-09-18T11:55:31.154Z,94916.66
2022-09-18T11:58:05.380Z,94912.06
2022-09-18T12:00:40.314Z,94920.22
2022-09-18T12:03:35.013Z,94920.84
2022-09-18T12:06:10.773Z,94919.66
2022-09-18T12:08:58.114Z,94926.69
2022-09-18T12:11:36.525Z,94929.16
2022-09-18T12:14:19.074Z,94928.06
2022-09-18T12:17:38.675Z,94927.44
2022-09-18T12:20:14.165Z,94928.84
2022-09-18T12:22:47.599Z,94932.38
2022-09-18T12:25:17.891Z,94925.34
2022-09-18T12:28:39.803Z,94918.78
2022-09-18T12:31:11.220Z,94923.03
2022-09-18T12:33:40.838Z,94916.06
2022-09-18T12:36:28.685Z,94916.72
2022-09-18T12:39:18.476Z,94922.41
2022-09-18T12:41:58.035Z,94930.56
2022-09-18T12:44:42.692Z,94942.78
2022-09-18T12:47:24.309Z,94953.81
2022-09-18T12:49:51.219Z,94932.97
2022-09-18T12:52:30.474Z,94937.78
2022-09-18T12:55:20.571Z,94951.66
2022-09-18T12:57:47.391Z,94939.13
2022-09-18T13:00:16.227Z,94930.28
2022-09-18T13:03:18.476Z,94941.41
2022-09-18T13:05:52.260Z,94927.41
2022-09-18T13:08:21.750Z,94931.53
2022-09-18T13:13:48.516Z,94932.41
2022-09-18T13:16:30.210Z,94934.56
2022-09-18T13:19:04.498Z,94938.31
2022-09-18T13:21:37.511Z,94923.69
2022-09-18T13:24:06.298Z,94922.13
2022-09-18T13:26:37.975Z,94940.28
2022-09-18T13:29:42.961Z,94930.69
2022-09-18T13:32:10.325Z,94918.78
2022-09-18T13:34:51.279Z,94933.50
2022-09-18T13:37:22.687Z,94935.28
2022-09-18T13:40:17.122Z,94956.69
2022-09-18T13:42:44.136Z,94939.81
2022-09-18T13:45:20.229Z,94949.81
2022-09-18T13:48:07.418Z,94948.97
2022-09-18T13:50:36.391Z,94933.56
2022-09-18T13:53:05.112Z,94955.63
2022-09-18T13:55:56.623Z,94962.44
2022-09-18T13:58:35.377Z,94954.19
2022-09-18T14:01:07.443Z,94949.50
2022-09-18T14:03:41.507Z,94945.25
2022-09-18T14:06:36.395Z,94945.06
2022-09-18T14:09:26.022Z,94941.44
2022-09-18T14:11:53.546Z,94949.53
2022-09-18T14:14:25.281Z,94954.38
2022-09-18T14:16:53.136Z,94950.44
2022-09-18T14:19:40.418Z,94957.03
2022-09-18T14:22:24.470Z,94948.78
2022-09-18T14:24:51.373Z,94956.66
2022-09-18T14:27:38.761Z,94939.81
2022-09-18T14:30:22.277Z,94947.00
2022-09-18T14:33:03.615Z,94948.03
2022-09-18T14:35:36.878Z,94951.34
2022-09-18T14:38:33.314Z,94950.47
2022-09-18T14:41:18.997Z,94952.88
2022-09-18T14:44:04.036Z,94959.00
2022-09-18T14:46:32.141Z,94946.94
2022-09-18T14:48:59.951Z,94943.44
2022-09-18T14:51:29.449Z,94954.63
2022-09-18T14:54:00.335Z,94947.94
2022-09-18T14:56:30.616Z,94954.88
2022-09-18T14:59:00.418Z,94952.75
2022-09-18T15:01:33.061Z,94958.03
2022-09-18T15:04:03.752Z,94955.81
2022-09-18T15:06:34.354Z,94951.59
2022-09-18T15:09:02.503Z,94947.31
2022-09-18T15:11:37.804Z,94955.94
2022-09-18T15:14:29.755Z,94962.84
2022-09-18T15:17:00.717Z,94955.47
2022-09-18T15:19:29.212Z,94957.31
2022-09-18T15:21:57.290Z,94960.56
2022-09-18T15:24:24.453Z,94963.66
2022-09-18T15:26:56.229Z,94963.78
2022-09-18T15:29:37.008Z,94970.16
2022-09-18T15:32:06.248Z,94972.09
2022-09-18T15:34:46.718Z,94970.25
2022-09-18T15:37:20.700Z,94968.41
2022-09-18T15:39:52.934Z,94976.56
2022-09-18T15:42:34.759Z,94977.53
2022-09-18T15:45:01.576Z,94969.09
2022-09-18T15:47:32.825Z,94981.78
2022-09-18T15:50:01.005Z,94978.56
2022-09-18T15:52:52.374Z,94975.91
2022-09-18T15:55:28.874Z,94979.88
2022-09-18T15:57:57.155Z,94974.25
2022-09-18T16:00:28.424Z,94972.81
2022-09-18T16:02:58.664Z,94978.00
2022-09-18T16:05:27.622Z,94979.59
2022-09-18T16:07:58.206Z,94984.44
2022-09-18T16:10:34.010Z,94990.53
2022-09-18T16:13:26.484Z,94988.97
2022-09-18T16:16:08.705Z,94991.66
2022-09-18T16:19:03.418Z,94988.81
2022-09-18T16:21:30.666Z,94987.25
2022-09-18T16:24:01.299Z,94993.16
2022-09-18T16:26:36.256Z,94991.50
2022-09-18T16:29:06.305Z,94987.88
2022-09-18T16:31:37.601Z,94992.06
2022-09-18T16:34:26.513Z,94990.34
2022-09-18T16:36:55.361Z,94990.53
2022-09-18T16:39:25.123Z,94999.59
2022-09-18T16:41:52.545Z,94998.69
2022-09-18T16:44:19.552Z,95009.50
2022-09-18T16:46:53.744Z,95020.78
2022-09-18T16:49:25.322Z,95013.72
2022-09-18T16:51:52.663Z,95024.47
2022-09-18T16:54:19.417Z,95032.38
2022-09-18T16:56:51.805Z,95031.78
2022-09-18T16:59:25.299Z,95043.72
2022-09-18T17:02:03.773Z,95033.06
2022-09-18T17:04:31.902Z,95039.69
2022-09-18T17:06:58.841Z,95049.56
2022-09-18T17:09:25.789Z,95055.56
2022-09-18T17:11:53.520Z,95056.69
2022-09-18T17:14:21.367Z,95057.78
2022-09-18T17:16:48.094Z,95062.00
2022-09-18T17:19:15.269Z,95064.47
2022-09-18T17:21:42.463Z,95071.81
2022-09-18T17:24:10.205Z,95071.03
2022-09-18T17:26:39.252Z,95075.66
2022-09-18T17:29:06.814Z,95074.44
2022-09-18T17:31:33.588Z,95081.34
2022-09-18T17:34:01.090Z,95085.59
2022-09-18T17:36:28.807Z,95082.63
2022-09-18T17:38:59.454Z,95093.72
2022-09-18T17:41:28.643Z,95101.75
2022-09-18T17:43:55.407Z,95096.28
2022-09-18T17:46:22.297Z,95097.09
2022-09-18T17:48:48.990Z,95099.00
2022-09-18T17:51:18.680Z,95111.09
2022-09-18T17:53:48.432Z,95107.41
2022-09-18T17:56:18.732Z,95115.00
2022-09-18T17:58:46.902Z,95117.66
2022-09-18T18:01:20.060Z,95121.97
2022-09-18T18:03:48.583Z,95122.66
2022-09-18T18:06:21.515Z,95126.44
2022-09-18T18:08:48.824Z,95125.03
2022-09-18T18:11:17.587Z,95127.78
2022-09-18T18:13:46.649Z,95128.16
2022-09-18T18:16:15.569Z,95130.94
2022-09-18T18:18:43.372Z,95140.69
2022-09-18T18:21:10.945Z,95139.50
2022-09-18T18:23:38.486Z,95138.75
2022-09-18T18:26:08.051Z,95133.94
2022-09-18T18:28:37.523Z,95132.66
2022-09-18T18:31:07.469Z,95139.94
2022-09-18T18:33:35.720Z,95133.00
2022-09-18T18:36:09.367Z,95138.50
2022-09-18T18:38:36.710Z,95143.81
2022-09-18T18:41:05.478Z,95147.81
2022-09-18T18:43:34.674Z,95144.69
2022-09-18T18:46:02.226Z,95144.28
2022-09-18T18:48:34.105Z,95141.06
2022-09-18T18:51:06.467Z,95137.84
2022-09-18T18:53:35.001Z,95144.22
2022-09-18T18:56:06.819Z,95144.69
2022-09-18T18:58:34.029Z,95139.94
2022-09-18T19:01:27.663Z,95143.81
2022-09-18T19:03:59.989Z,95136.03
2022-09-18T19:06:27.394Z,95147.63
2022-09-18T19:08:59.167Z,95138.97
2022-09-18T19:11:27.347Z,95147.69
2022-09-18T19:13:56.824Z,95146.44
2022-09-18T19:16:32.268Z,95139.16
2022-09-18T19:19:00.356Z,95138.41
2022-09-18T19:21:28.626Z,95147.44
2022-09-18T19:23:59.355Z,95147.81
2022-09-18T19:26:28.422Z,95136.84
2022-09-18T19:29:00.989Z,95146.06
2022-09-18T19:31:29.411Z,95136.84
2022-09-18T19:33:57.956Z,95138.59
2022-09-18T19:36:29.166Z,95127.41
2022-09-18T19:38:58.559Z,95148.22
2022-09-18T19:41:43.343Z,95150.34
2022-09-18T19:44:25.962Z,95153.47
2022-09-18T19:46:55.681Z,95155.25
2022-09-18T19:49:28.807Z,95152.66
2022-09-18T19:51:55.846Z,95164.53
2022-09-18T19:54:23.138Z,95159.59
2022-09-18T19:56:50.087Z,95162.81
2022-09-18T19:59:17.073Z,95151.34
2022-09-18T20:01:44.912Z,95173.38
2022-09-18T20:04:11.744Z,95167.72
2022-09-18T20:06:40.501Z,95175.25
2022-09-18T20:09:07.506Z,95167.22
2022-09-18T20:11:35.319Z,95162.59
2022-09-18T20:14:02.001Z,95165.88
2022-09-18T20:16:28.877Z,95169.66
2022-09-18T20:18:55.709Z,95172.81
2022-09-18T20:21:23.680Z,95166.91
2022-09-18T20:23:57.040Z,95180.31
2022-09-18T20:26:24.551Z,95183.06
2022-09-18T20:28:51.901Z,95179.22
2022-09-18T20:31:20.777Z,95178.66
2022-09-18T20:33:47.606Z,95183.78
2022-09-18T20:36:14.514Z,95177.34
2022-09-18T20:38:43.145Z,95186.19
2022-09-18T20:41:13.967Z,95184.28
2022-09-18T20:43:44.937Z,95180.03
2022-09-18T20:46:17.194Z,95173.75
2022-09-18T20:48:53.055Z,95189.63
2022-09-18T20:51:22.430Z,95186.53
2022-09-18T20:53:49.188Z,95193.53
2022-09-18T20:56:16.193Z,95186.06
2022-09-18T20:58:42.941Z,95171.53
2022-09-18T21:01:15.359Z,95180.09
2022-09-18T21:03:43.629Z,95178.53
2022-09-18T21:06:22.298Z,95184.38
2022-09-18T21:08:53.465Z,95179.59
2022-09-18T21:11:28.902Z,95186.41
2022-09-18T21:13:59.129Z,95196.88
2022-09-18T21:16:28.148Z,95196.25
2022-09-18T21:18:59.305Z,95202.94
2022-09-18T21:21:31.026Z,95191.25
2022-09-18T21:24:01.311Z,95192.78
2022-09-18T21:26:38.882Z,95206.75
2022-09-18T21:29:20.890Z,95194.41
2022-09-18T21:31:50.591Z,95201.78
2022-09-18T21:34:31.671Z,95190.63
2022-09-18T21:37:01.730Z,95197.06
2022-09-18T21:39:29.502Z,95189.59
2022-09-18T21:41:57.458Z,95190.44
2022-09-18T21:44:29.634Z,95187.97
2022-09-18T21:46:59.703Z,95187.94
2022-09-18T21:49:27.708Z,95185.06
2022-09-18T21:51:56.991Z,95183.63
2022-09-18T21:54:25.497Z,95182.81
2022-09-18T21:56:52.803Z,95185.91
2022-09-18T21:59:23.947Z,95180.44
2022-09-18T22:01:55.227Z,95188.56
2022-09-18T22:04:27.555Z,95192.81
2022-09-18T22:06:56.873Z,95188.28
2022-09-18T22:09:29.349Z,95203.16
2022-09-18T22:11:57.180Z,95188.78
2022-09-18T22:14:31.379Z,95192.78
2022-09-18T22:17:04.146Z,95193.00
2022-09-18T22:19:33.323Z,95197.50
2022-09-18T22:22:01.790Z,95199.06
2022-09-18T22:24:29.707Z,95189.16
2022-09-18T22:27:08.534Z,95193.03
2022-09-18T22:29:37.893Z,95195.94
2022-09-18T22:32:05.151Z,95203.41
2022-09-18T22:34:35.085Z,95203.00
2022-09-18T22:37:02.767Z,95203.66
2022-09-18T22:39:30.187Z,95210.78
2022-09-18T22:41:57.296Z,95198.03
2022-09-18T22:44:24.144Z,95201.28
2022-09-18T22:46:52.666Z,95207.56
2022-09-18T22:49:21.597Z,95198.84
2022-09-18T22:51:48.650Z,95207.03
2022-09-18T22:54:16.897Z,95202.22
2022-09-18T22:56:49.821Z,95207.78
2022-09-18T22:59:18.808Z,95195.22
2022-09-18T23:01:58.098Z,95203.63
2022-09-18T23:04:29.056Z,95204.56
2022-09-18T23:06:57.184Z,95203.50
2022-09-18T23:09:24.209Z,95205.06
2022-09-18T23:11:54.847Z,95207.81
2022-09-18T23:14:25.989Z,95208.97
2022-09-18T23:16:53.376Z,95204.13
2022-09-18T23:19:23.427Z,95194.97
2022-09-18T23:21:50.853Z,95188.28
2022-09-18T23:24:18.565Z,95200.38
2022-09-18T23:26:47.801Z,95209.53
2022-09-18T23:29:18.498Z,95198.72
2022-09-18T23:31:47.480Z,95197.13
2022-09-18T23:34:17.167Z,95195.72
2022-09-18T23:36:48.273Z,95203.03
2022-09-18T23:39:24.379Z,95197.19
2022-09-18T23:41:51.779Z,95195.16
2022-09-18T23:44:20.520Z,95193.00
2022-09-18T23:46:48.123Z,95153.78
2022-09-18T23:49:16.241Z,95176.16
2022-09-18T23:51:48.558Z,95183.56
2022-09-18T23:54:19.075Z,95183.41
2022-09-18T23:56:47.182Z,95188.09
2022-09-18T23:59:19.581Z,95187.13
